createdAt,value
2019-05-23T00:00:03.243Z,7.67
2019-05-23T00:01:03.288Z,7.58
2019-05-23T00:02:03.328Z,7.64
2019-05-23T00:03:03.366Z,7.61
2019-05-23T00:04:03.405Z,7.58
2019-05-23T00:05:03.447Z,7.61
2019-05-23T00:06:03.477Z,7.63
2019-05-23T00:07:03.524Z,7.58
2019-05-23T00:08:03.562Z,7.63
2019-05-23T00:09:03.618Z,7.60
2019-05-23T00:10:03.637Z,7.58
2019-05-23T00:11:03.673Z,7.63
2019-05-23T00:12:03.708Z,7.60
2019-05-23T00:13:03.756Z,7.58
2019-05-23T00:14:03.787Z,7.55
2019-05-23T00:15:03.837Z,7.57
2019-05-23T00:16:03.862Z,7.57
2019-05-23T00:17:03.918Z,7.57
2019-05-23T00:18:03.942Z,7.57
2019-05-23T00:19:03.980Z,7.52
2019-05-23T00:20:04.020Z,7.50
2019-05-23T00:21:04.056Z,7.57
2019-05-23T00:22:04.094Z,7.57
2019-05-23T00:23:04.132Z,7.49
2019-05-23T00:24:04.202Z,7.46
2019-05-23T00:25:04.218Z,7.46
2019-05-23T00:26:04.248Z,7.45
2019-05-23T00:27:04.286Z,7.46
2019-05-23T00:28:04.325Z,7.52
2019-05-23T00:29:09.953Z,7.43
2019-05-23T00:30:04.405Z,7.35
2019-05-23T00:31:04.440Z,7.39
2019-05-23T00:32:04.482Z,7.31
2019-05-23T00:33:04.517Z,7.34
2019-05-23T00:34:04.555Z,7.34
2019-05-23T00:35:04.593Z,7.23
2019-05-23T00:36:04.632Z,7.32
2019-05-23T00:37:04.674Z,7.34
2019-05-23T00:38:04.711Z,7.35
2019-05-23T00:39:04.752Z,7.25
2019-05-23T00:40:04.786Z,7.31
2019-05-23T00:41:04.829Z,7.23
2019-05-23T00:42:04.875Z,7.27
2019-05-23T00:43:04.908Z,7.27
2019-05-23T00:44:04.944Z,7.27
2019-05-23T00:45:04.979Z,7.31
2019-05-23T00:46:05.026Z,7.25
2019-05-23T00:47:05.057Z,7.21
2019-05-23T00:48:05.095Z,7.32
2019-05-23T00:49:05.133Z,7.28
2019-05-23T00:50:05.171Z,7.31
2019-05-23T00:51:05.614Z,7.30
2019-05-23T00:52:05.247Z,7.32
2019-05-23T00:53:05.287Z,7.37
2019-05-23T00:54:05.325Z,7.39
2019-05-23T00:55:05.360Z,7.32
2019-05-23T00:56:05.409Z,7.42
2019-05-23T00:57:05.447Z,7.42
2019-05-23T00:58:05.475Z,7.46
2019-05-23T00:59:05.517Z,7.43
2019-05-23T01:00:05.555Z,7.50
2019-05-23T01:01:05.591Z,7.46
2019-05-23T01:02:05.629Z,7.46
2019-05-23T01:03:05.675Z,7.57
2019-05-23T01:04:05.707Z,7.53
2019-05-23T01:05:05.745Z,7.52
2019-05-23T01:06:05.801Z,7.55
2019-05-23T01:07:05.823Z,7.46
2019-05-23T01:08:05.861Z,7.63
2019-05-23T01:09:05.902Z,7.43
2019-05-23T01:10:05.941Z,7.45
2019-05-23T01:11:05.977Z,7.53
2019-05-23T01:12:06.014Z,7.48
2019-05-23T01:13:06.065Z,7.42
2019-05-23T01:14:06.096Z,7.48
2019-05-23T01:15:06.130Z,7.58
2019-05-23T01:16:06.169Z,7.50
2019-05-23T01:17:06.207Z,7.52
2019-05-23T01:18:06.246Z,7.45
2019-05-23T01:19:06.285Z,7.45
2019-05-23T01:20:06.321Z,7.61
2019-05-23T01:21:06.359Z,7.57
2019-05-23T01:22:06.429Z,7.50
2019-05-23T01:23:06.438Z,7.60
2019-05-23T01:24:06.474Z,7.58
2019-05-23T01:25:06.520Z,7.63
2019-05-23T01:26:06.557Z,7.61
2019-05-23T01:27:06.592Z,7.58
2019-05-23T01:28:06.806Z,7.63
2019-05-23T01:29:06.670Z,7.57
2019-05-23T01:30:06.705Z,7.57
2019-05-23T01:31:06.748Z,7.67
2019-05-23T01:32:06.809Z,7.72
2019-05-23T01:33:06.822Z,7.64
2019-05-23T01:34:06.867Z,7.71
2019-05-23T01:35:06.906Z,7.69
2019-05-23T01:36:06.962Z,7.67
2019-05-23T01:37:06.974Z,7.71
2019-05-23T01:38:07.064Z,7.77
2019-05-23T01:39:07.051Z,7.74
2019-05-23T01:40:07.093Z,7.77
2019-05-23T01:41:07.129Z,7.77
2019-05-23T01:42:07.180Z,7.71
2019-05-23T01:43:07.207Z,7.77
2019-05-23T01:44:07.244Z,7.79
2019-05-23T01:45:07.285Z,7.79
2019-05-23T01:46:07.325Z,7.82
2019-05-23T01:47:07.363Z,7.75
2019-05-23T01:48:07.406Z,7.87
2019-05-23T01:49:07.435Z,7.87
2019-05-23T01:50:07.480Z,7.89
2019-05-23T01:51:07.519Z,7.85
2019-05-23T01:52:07.550Z,7.90
2019-05-23T01:53:07.590Z,7.90
2019-05-23T01:54:07.631Z,8.01
2019-05-23T01:55:07.698Z,8.00
2019-05-23T01:56:07.711Z,8.00
2019-05-23T01:57:07.744Z,8.05
2019-05-23T01:58:07.793Z,7.98
2019-05-23T01:59:07.820Z,8.02
2019-05-23T02:00:10.738Z,8.12
2019-05-23T02:01:07.896Z,8.07
2019-05-23T02:02:07.936Z,8.11
2019-05-23T02:03:07.975Z,8.08
2019-05-23T02:04:08.013Z,8.15
2019-05-23T02:05:08.053Z,8.08
2019-05-23T02:06:08.095Z,8.16
2019-05-23T02:07:08.129Z,8.12
2019-05-23T02:08:08.183Z,8.10
2019-05-23T02:09:08.209Z,8.16
2019-05-23T02:10:08.255Z,8.23
2019-05-23T02:11:08.287Z,8.36
2019-05-23T02:12:08.321Z,8.28
2019-05-23T02:13:08.361Z,8.22
2019-05-23T02:14:08.401Z,8.33
2019-05-23T02:15:08.442Z,8.38
2019-05-23T02:16:08.480Z,8.30
2019-05-23T02:17:08.517Z,8.38
2019-05-23T02:18:08.555Z,8.36
2019-05-23T02:19:08.593Z,8.47
2019-05-23T02:20:08.632Z,8.50
2019-05-23T02:21:08.670Z,8.43
2019-05-23T02:22:08.708Z,8.53
2019-05-23T02:23:08.748Z,8.62
2019-05-23T02:24:08.786Z,8.62
2019-05-23T02:25:08.824Z,8.65
2019-05-23T02:26:08.863Z,8.73
2019-05-23T02:27:08.903Z,8.62
2019-05-23T02:28:08.940Z,8.63
2019-05-23T02:29:08.984Z,8.76
2019-05-23T02:30:30.178Z,8.65
2019-05-23T02:31:09.064Z,8.76
2019-05-23T02:32:09.135Z,8.70
2019-05-23T02:33:09.144Z,8.83
2019-05-23T02:34:09.174Z,8.81
2019-05-23T02:35:09.213Z,8.87
2019-05-23T02:36:09.252Z,8.87
2019-05-23T02:37:09.290Z,8.80
2019-05-23T02:38:09.330Z,8.83
2019-05-23T02:39:09.369Z,8.83
2019-05-23T02:40:09.413Z,8.83
2019-05-23T02:41:09.447Z,8.96
2019-05-23T02:42:09.486Z,8.91
2019-05-23T02:43:09.526Z,8.94
2019-05-23T02:44:09.566Z,8.95
2019-05-23T02:45:09.607Z,8.95
2019-05-23T02:46:09.646Z,8.94
2019-05-23T02:47:09.680Z,9.01
2019-05-23T02:48:09.718Z,8.99
2019-05-23T02:49:09.760Z,8.98
2019-05-23T02:50:09.799Z,8.98
2019-05-23T02:51:09.840Z,8.96
2019-05-23T02:52:09.881Z,8.99
2019-05-23T02:53:09.917Z,9.02
2019-05-23T02:54:09.953Z,9.02
2019-05-23T02:55:09.993Z,9.10
2019-05-23T02:56:10.038Z,9.01
2019-05-23T02:57:10.070Z,9.04
2019-05-23T02:58:10.109Z,9.01
2019-05-23T02:59:10.152Z,8.98
2019-05-23T03:00:10.197Z,8.99
2019-05-23T03:01:10.237Z,8.99
2019-05-23T03:02:10.264Z,9.08
2019-05-23T03:03:10.305Z,9.10
2019-05-23T03:04:10.344Z,9.10
2019-05-23T03:05:10.383Z,9.11
2019-05-23T03:06:10.424Z,9.08
2019-05-23T03:07:10.463Z,9.13
2019-05-23T03:08:10.509Z,9.17
2019-05-23T03:09:10.541Z,9.18
2019-05-23T03:10:10.579Z,9.18
2019-05-23T03:11:10.618Z,9.18
2019-05-23T03:12:10.664Z,9.21
2019-05-23T03:13:10.696Z,9.28
2019-05-23T03:14:10.746Z,9.18
2019-05-23T03:15:10.774Z,9.10
2019-05-23T03:16:10.815Z,9.24
2019-05-23T03:17:10.854Z,9.15
2019-05-23T03:18:10.894Z,9.13
2019-05-23T03:19:10.931Z,9.23
2019-05-23T03:20:10.970Z,9.21
2019-05-23T03:21:11.012Z,9.11
2019-05-23T03:22:11.053Z,9.14
2019-05-23T03:23:11.088Z,9.11
2019-05-23T03:24:11.126Z,9.15
2019-05-23T03:25:11.173Z,9.14
2019-05-23T03:26:11.204Z,9.14
2019-05-23T03:27:11.244Z,9.20
2019-05-23T03:28:11.283Z,9.20
2019-05-23T03:29:11.358Z,9.20
2019-05-23T03:30:11.363Z,9.24
2019-05-23T03:31:28.455Z,9.15
2019-05-23T03:32:11.455Z,9.17
2019-05-23T03:33:11.481Z,9.11
2019-05-23T03:34:11.542Z,9.13
2019-05-23T03:35:11.561Z,9.20
2019-05-23T03:36:11.596Z,9.20
2019-05-23T03:37:11.637Z,9.17
2019-05-23T03:38:11.676Z,9.20
2019-05-23T03:39:11.721Z,9.15
2019-05-23T03:40:11.755Z,9.08
2019-05-23T03:41:11.993Z,9.05
2019-05-23T03:42:11.832Z,9.02
2019-05-23T03:43:11.880Z,9.08
2019-05-23T03:44:11.909Z,9.11
2019-05-23T03:45:11.951Z,9.11
2019-05-23T03:46:11.991Z,9.11
2019-05-23T03:47:12.035Z,9.08
2019-05-23T03:48:12.077Z,9.04
2019-05-23T03:49:12.114Z,9.11
2019-05-23T03:50:12.146Z,9.13
2019-05-23T03:51:12.196Z,9.15
2019-05-23T03:52:12.231Z,9.05
2019-05-23T03:53:12.265Z,9.14
2019-05-23T03:54:12.305Z,9.14
2019-05-23T03:55:12.348Z,9.05
2019-05-23T03:56:12.377Z,9.14
2019-05-23T03:57:12.421Z,9.04
2019-05-23T03:58:12.463Z,9.08
2019-05-23T03:59:12.500Z,9.08
2019-05-23T04:00:12.536Z,9.11
2019-05-23T04:01:12.590Z,9.14
2019-05-23T04:02:12.616Z,9.15
2019-05-23T04:03:12.661Z,9.20
2019-05-23T04:04:12.691Z,9.17
2019-05-23T04:05:12.736Z,9.24
2019-05-23T04:06:12.776Z,9.18
2019-05-23T04:07:12.811Z,9.13
2019-05-23T04:08:12.850Z,9.21
2019-05-23T04:09:12.887Z,9.26
2019-05-23T04:10:12.933Z,9.21
2019-05-23T04:11:12.971Z,9.21
2019-05-23T04:12:13.010Z,9.28
2019-05-23T04:13:13.068Z,9.33
2019-05-23T04:14:13.200Z,9.36
2019-05-23T04:15:13.124Z,9.35
2019-05-23T04:16:13.167Z,9.40
2019-05-23T04:17:13.204Z,9.43
2019-05-23T04:18:13.251Z,9.47
2019-05-23T04:19:13.281Z,9.50
2019-05-23T04:20:13.322Z,9.48
2019-05-23T04:21:13.413Z,9.47
2019-05-23T04:22:13.411Z,9.40
2019-05-23T04:23:13.442Z,9.50
2019-05-23T04:24:13.483Z,9.53
2019-05-23T04:25:13.522Z,9.54
2019-05-23T04:26:13.565Z,9.53
2019-05-23T04:27:13.597Z,9.53
2019-05-23T04:28:13.637Z,9.58
2019-05-23T04:29:13.674Z,9.53
2019-05-23T04:30:13.715Z,9.51
2019-05-23T04:31:13.869Z,9.57
2019-05-23T04:32:13.806Z,9.50
2019-05-23T04:33:13.833Z,9.61
2019-05-23T04:34:13.873Z,9.54
2019-05-23T04:35:13.912Z,9.56
2019-05-23T04:36:13.952Z,9.64
2019-05-23T04:37:13.990Z,9.56
2019-05-23T04:38:14.030Z,9.60
2019-05-23T04:39:14.072Z,9.51
2019-05-23T04:40:14.110Z,9.57
2019-05-23T04:41:14.149Z,9.61
2019-05-23T04:42:14.192Z,9.57
2019-05-23T04:43:14.236Z,9.54
2019-05-23T04:44:14.269Z,9.53
2019-05-23T04:45:14.307Z,9.54
2019-05-23T04:46:14.353Z,9.54
2019-05-23T04:47:14.396Z,9.54
2019-05-23T04:48:14.425Z,9.54
2019-05-23T04:49:14.466Z,9.54
2019-05-23T04:50:14.504Z,9.56
2019-05-23T04:51:14.545Z,9.64
2019-05-23T04:52:14.595Z,9.65
2019-05-23T04:53:14.644Z,9.61
2019-05-23T04:54:14.682Z,9.65
2019-05-23T04:55:14.703Z,9.69
2019-05-23T04:56:14.743Z,9.72
2019-05-23T04:57:14.782Z,9.78
2019-05-23T04:58:14.838Z,9.76
2019-05-23T04:59:14.862Z,9.76
2019-05-23T05:00:14.929Z,9.72
2019-05-23T05:01:14.940Z,9.86
2019-05-23T05:02:25.656Z,9.75
2019-05-23T05:03:17.889Z,9.81
2019-05-23T05:04:15.057Z,9.84
2019-05-23T05:05:15.099Z,9.90
2019-05-23T05:06:15.137Z,9.97
2019-05-23T05:07:15.182Z,9.91
2019-05-23T05:08:15.285Z,9.90
2019-05-23T05:09:15.258Z,9.91
2019-05-23T05:10:15.293Z,9.94
2019-05-23T05:11:15.382Z,9.97
2019-05-23T05:12:15.387Z,9.96
2019-05-23T05:13:15.420Z,9.94
2019-05-23T05:14:15.455Z,10.01
2019-05-23T05:15:15.492Z,10.12
2019-05-23T05:16:15.529Z,10.11
2019-05-23T05:17:15.569Z,10.23
2019-05-23T05:18:15.627Z,10.22
2019-05-23T05:19:15.660Z,10.23
2019-05-23T05:20:15.691Z,10.22
2019-05-23T05:21:15.735Z,10.34
2019-05-23T05:22:15.770Z,10.36
2019-05-23T05:23:15.807Z,10.44
2019-05-23T05:24:15.849Z,10.55
2019-05-23T05:25:16.049Z,10.51
2019-05-23T05:26:15.927Z,10.55
2019-05-23T05:27:15.968Z,10.61
2019-05-23T05:28:16.008Z,10.60
2019-05-23T05:29:16.049Z,10.59
2019-05-23T05:30:16.092Z,10.59
2019-05-23T05:31:16.144Z,10.63
2019-05-23T05:32:16.178Z,10.59
2019-05-23T05:33:16.211Z,10.61
2019-05-23T05:34:16.249Z,10.55
2019-05-23T05:35:16.291Z,10.71
2019-05-23T05:36:16.327Z,10.82
2019-05-23T05:37:16.370Z,10.92
2019-05-23T05:38:16.407Z,10.81
2019-05-23T05:39:16.451Z,10.91
2019-05-23T05:40:16.491Z,10.89
2019-05-23T05:41:16.527Z,11.03
2019-05-23T05:42:16.584Z,11.02
2019-05-23T05:43:16.610Z,11.04
2019-05-23T05:44:16.654Z,11.06
2019-05-23T05:45:16.693Z,11.10
2019-05-23T05:46:16.732Z,11.19
2019-05-23T05:47:16.773Z,11.32
2019-05-23T05:48:16.823Z,11.29
2019-05-23T05:49:16.856Z,11.37
2019-05-23T05:50:16.900Z,11.42
2019-05-23T05:51:16.932Z,11.44
2019-05-23T05:52:16.972Z,11.44
2019-05-23T05:53:17.017Z,11.51
2019-05-23T05:54:17.052Z,11.57
2019-05-23T05:55:17.093Z,11.65
2019-05-23T05:56:17.384Z,11.65
2019-05-23T05:57:17.176Z,11.72
2019-05-23T05:58:17.238Z,11.79
2019-05-23T05:59:17.261Z,11.83
2019-05-23T06:00:17.298Z,11.94
2019-05-23T06:01:32.743Z,12.05
2019-05-23T06:02:17.376Z,12.12
2019-05-23T06:03:17.433Z,12.24
2019-05-23T06:04:17.458Z,12.27
2019-05-23T06:05:17.513Z,12.31
2019-05-23T06:06:17.539Z,12.41
2019-05-23T06:07:17.579Z,12.35
2019-05-23T06:08:17.656Z,12.56
2019-05-23T06:09:17.662Z,12.53
2019-05-23T06:10:17.711Z,12.62
2019-05-23T06:11:17.749Z,12.72
2019-05-23T06:12:17.789Z,12.92
2019-05-23T06:13:17.827Z,12.85
2019-05-23T06:14:17.867Z,12.87
2019-05-23T06:15:17.909Z,12.92
2019-05-23T06:16:17.975Z,13.03
2019-05-23T06:17:17.993Z,13.11
2019-05-23T06:18:18.032Z,13.14
2019-05-23T06:19:18.084Z,13.14
2019-05-23T06:20:18.132Z,13.03
2019-05-23T06:21:18.160Z,13.04
2019-05-23T06:22:18.202Z,12.96
2019-05-23T06:23:18.277Z,13.01
2019-05-23T06:24:18.282Z,12.90
2019-05-23T06:25:18.391Z,13.01
2019-05-23T06:26:18.392Z,13.00
2019-05-23T06:27:18.522Z,13.11
2019-05-23T06:28:18.458Z,13.14
2019-05-23T06:29:18.646Z,13.30
2019-05-23T06:30:18.533Z,13.32
2019-05-23T06:31:18.574Z,13.42
2019-05-23T06:32:18.614Z,13.46
2019-05-23T06:33:23.093Z,13.41
2019-05-23T06:34:18.698Z,13.46
2019-05-23T06:35:18.749Z,13.49
2019-05-23T06:36:18.781Z,13.45
2019-05-23T06:37:18.826Z,13.41
2019-05-23T06:38:18.867Z,13.38
2019-05-23T06:39:18.909Z,13.42
2019-05-23T06:40:19.028Z,13.32
2019-05-23T06:41:19.065Z,13.39
2019-05-23T06:42:19.034Z,13.45
2019-05-23T06:43:19.083Z,13.36
2019-05-23T06:44:19.161Z,13.23
2019-05-23T06:45:19.201Z,13.29
2019-05-23T06:46:19.214Z,13.23
2019-05-23T06:47:19.247Z,13.17
2019-05-23T06:48:19.286Z,13.04
2019-05-23T06:49:19.329Z,13.10
2019-05-23T06:50:19.393Z,13.03
2019-05-23T06:51:19.418Z,13.05
2019-05-23T06:52:19.454Z,13.00
2019-05-23T06:53:19.493Z,13.00
2019-05-23T06:54:19.547Z,13.10
2019-05-23T06:55:19.585Z,13.05
2019-05-23T06:56:19.622Z,13.26
2019-05-23T06:57:19.664Z,13.23
2019-05-23T06:58:20.065Z,13.23
2019-05-23T06:59:19.747Z,13.23
2019-05-23T07:00:19.794Z,13.25
2019-05-23T07:01:19.832Z,13.25
2019-05-23T07:02:19.872Z,13.25
2019-05-23T07:03:19.915Z,13.25
2019-05-23T07:04:19.957Z,13.26
2019-05-23T07:05:20.010Z,13.36
2019-05-23T07:06:20.040Z,13.42
2019-05-23T07:07:20.086Z,13.55
2019-05-23T07:08:20.134Z,13.60
2019-05-23T07:09:20.243Z,13.62
2019-05-23T07:10:20.209Z,13.70
2019-05-23T07:11:20.250Z,13.64
2019-05-23T07:12:20.294Z,13.67
2019-05-23T07:13:20.338Z,13.73
2019-05-23T07:14:20.377Z,13.75
2019-05-23T07:15:20.421Z,13.79
2019-05-23T07:16:20.460Z,13.82
2019-05-23T07:17:20.505Z,13.84
2019-05-23T07:18:20.549Z,13.79
2019-05-23T07:19:20.600Z,13.85
2019-05-23T07:20:20.657Z,13.81
2019-05-23T07:21:20.724Z,13.88
2019-05-23T07:22:20.721Z,13.88
2019-05-23T07:23:20.763Z,13.85
2019-05-23T07:24:20.799Z,14.02
2019-05-23T07:25:20.841Z,14.17
2019-05-23T07:26:20.885Z,14.24
2019-05-23T07:27:20.928Z,14.27
2019-05-23T07:28:20.969Z,14.32
2019-05-23T07:29:21.018Z,14.40
2019-05-23T07:30:21.060Z,14.36
2019-05-23T07:31:21.105Z,14.33
2019-05-23T07:32:21.147Z,14.45
2019-05-23T07:33:21.186Z,14.35
2019-05-23T07:34:21.228Z,14.47
2019-05-23T07:35:21.279Z,14.42
2019-05-23T07:36:21.311Z,14.47
2019-05-23T07:37:21.368Z,14.52
2019-05-23T07:38:21.406Z,14.50
2019-05-23T07:39:21.442Z,14.47
2019-05-23T07:40:21.480Z,14.62
2019-05-23T07:41:21.523Z,14.69
2019-05-23T07:42:21.568Z,14.68
2019-05-23T07:43:21.608Z,14.80
2019-05-23T07:44:21.669Z,14.77
2019-05-23T07:45:21.693Z,14.81
2019-05-23T07:46:21.736Z,14.91
2019-05-23T07:47:21.779Z,15.09
2019-05-23T07:48:21.832Z,15.03
2019-05-23T07:49:21.879Z,15.13
2019-05-23T07:50:21.909Z,15.11
2019-05-23T07:51:21.949Z,15.25
2019-05-23T07:52:21.998Z,15.34
2019-05-23T07:53:22.069Z,15.41
2019-05-23T07:54:22.085Z,15.51
2019-05-23T07:55:22.125Z,15.47
2019-05-23T07:56:22.188Z,15.57
2019-05-23T07:57:22.208Z,15.53
2019-05-23T07:58:22.260Z,15.64
2019-05-23T07:59:22.298Z,15.65
2019-05-23T08:00:22.341Z,15.62
2019-05-23T08:01:22.380Z,15.68
2019-05-23T08:02:25.491Z,15.75
2019-05-23T08:03:22.467Z,15.80
2019-05-23T08:04:22.932Z,15.76
2019-05-23T08:05:22.661Z,15.89
2019-05-23T08:06:22.598Z,15.89
2019-05-23T08:07:22.642Z,15.97
2019-05-23T08:08:22.697Z,15.96
2019-05-23T08:09:22.727Z,15.93
2019-05-23T08:10:33.258Z,16.00
2019-05-23T08:11:22.817Z,16.11
2019-05-23T08:12:22.994Z,16.20
2019-05-23T08:13:22.903Z,16.27
2019-05-23T08:14:22.948Z,16.30
2019-05-23T08:15:22.990Z,16.35
2019-05-23T08:16:23.031Z,16.43
2019-05-23T08:17:23.084Z,16.45
2019-05-23T08:18:23.128Z,16.45
2019-05-23T08:19:23.160Z,16.50
2019-05-23T08:20:23.220Z,16.53
2019-05-23T08:21:23.252Z,16.56
2019-05-23T08:22:23.292Z,16.64
2019-05-23T08:23:23.341Z,16.68
2019-05-23T08:24:23.384Z,16.83
2019-05-23T08:25:23.423Z,16.85
2019-05-23T08:26:23.471Z,16.86
2019-05-23T08:27:23.512Z,16.94
2019-05-23T08:28:23.560Z,17.06
2019-05-23T08:29:26.627Z,17.14
2019-05-23T08:30:23.644Z,17.18
2019-05-23T08:31:23.703Z,17.28
2019-05-23T08:32:23.732Z,17.33
2019-05-23T08:33:23.783Z,17.26
2019-05-23T08:34:39.932Z,17.37
2019-05-23T08:35:23.863Z,17.46
2019-05-23T08:36:23.918Z,17.56
2019-05-23T08:37:23.964Z,17.58
2019-05-23T08:38:23.995Z,17.56
2019-05-23T08:39:24.047Z,17.62
2019-05-23T08:40:24.086Z,17.72
2019-05-23T08:41:24.134Z,17.77
2019-05-23T08:42:24.173Z,17.81
2019-05-23T08:43:24.219Z,17.92
2019-05-23T08:44:24.277Z,17.89
2019-05-23T08:45:24.360Z,17.93
2019-05-23T08:46:24.354Z,17.93
2019-05-23T08:47:24.395Z,17.84
2019-05-23T08:48:24.451Z,17.96
2019-05-23T08:49:24.483Z,18.02
2019-05-23T08:50:24.531Z,18.18
2019-05-23T08:51:24.575Z,18.18
2019-05-23T08:52:24.618Z,18.21
2019-05-23T08:53:24.663Z,18.32
2019-05-23T08:54:24.706Z,18.33
2019-05-23T08:55:24.752Z,18.33
2019-05-23T08:56:24.795Z,18.37
2019-05-23T08:57:24.842Z,18.47
2019-05-23T08:58:24.886Z,18.51
2019-05-23T08:59:24.942Z,18.50
2019-05-23T09:00:24.978Z,18.60
2019-05-23T09:01:25.022Z,18.54
2019-05-23T09:02:25.149Z,18.65
2019-05-23T09:03:25.115Z,18.69
2019-05-23T09:04:25.162Z,18.75
2019-05-23T09:05:25.208Z,18.69
2019-05-23T09:06:25.252Z,18.69
2019-05-23T09:07:25.290Z,18.76
2019-05-23T09:08:25.334Z,18.87
2019-05-23T09:09:29.784Z,18.88
2019-05-23T09:10:25.426Z,18.85
2019-05-23T09:11:25.481Z,18.94
2019-05-23T09:12:25.526Z,19.06
2019-05-23T09:13:25.558Z,18.98
2019-05-23T09:14:25.605Z,19.16
2019-05-23T09:15:25.652Z,19.21
2019-05-23T09:16:25.704Z,19.19
2019-05-23T09:17:25.747Z,19.28
2019-05-23T09:18:25.784Z,19.40
2019-05-23T09:19:25.840Z,19.40
2019-05-23T09:20:25.875Z,19.47
2019-05-23T09:21:25.921Z,19.55
2019-05-23T09:22:25.970Z,19.68
2019-05-23T09:23:26.065Z,19.74
2019-05-23T09:24:26.057Z,19.77
2019-05-23T09:25:26.109Z,19.94
2019-05-23T09:26:26.149Z,19.98
2019-05-23T09:27:26.193Z,20.06
2019-05-23T09:28:26.252Z,20.13
2019-05-23T09:29:26.288Z,20.20
2019-05-23T09:30:26.333Z,20.43
2019-05-23T09:31:26.383Z,20.51
2019-05-23T09:32:26.421Z,20.59
2019-05-23T09:33:26.470Z,20.61
2019-05-23T09:34:26.514Z,20.67
2019-05-23T09:35:26.560Z,20.76
2019-05-23T09:36:26.606Z,20.87
2019-05-23T09:37:26.654Z,20.70
2019-05-23T09:38:26.699Z,20.82
2019-05-23T09:39:26.742Z,20.72
2019-05-23T09:40:26.789Z,20.82
2019-05-23T09:41:26.846Z,20.91
2019-05-23T09:42:26.881Z,20.82
2019-05-23T09:43:26.927Z,20.95
2019-05-23T09:44:26.973Z,20.87
2019-05-23T09:45:27.018Z,20.85
2019-05-23T09:46:27.065Z,20.84
2019-05-23T09:47:27.115Z,20.91
2019-05-23T09:48:27.397Z,20.82
2019-05-23T09:49:27.208Z,20.84
2019-05-23T09:50:27.251Z,20.98
2019-05-23T09:51:27.302Z,20.92
2019-05-23T09:52:27.342Z,20.98
2019-05-23T09:53:27.390Z,20.95
2019-05-23T09:54:27.444Z,20.99
2019-05-23T09:55:27.483Z,20.92
2019-05-23T09:56:27.528Z,20.98
2019-05-23T09:57:27.582Z,21.01
2019-05-23T09:58:27.622Z,20.99
2019-05-23T09:59:27.674Z,20.99
2019-05-23T10:00:27.724Z,21.04
2019-05-23T10:01:27.772Z,21.14
2019-05-23T10:02:27.810Z,21.06
2019-05-23T10:03:27.859Z,21.19
2019-05-23T10:04:27.915Z,21.17
2019-05-23T10:05:42.196Z,21.34
2019-05-23T10:06:28.004Z,21.34
2019-05-23T10:07:28.043Z,21.40
2019-05-23T10:08:28.090Z,21.38
2019-05-23T10:09:28.133Z,21.37
2019-05-23T10:10:28.182Z,21.53
2019-05-23T10:11:28.229Z,21.52
2019-05-23T10:12:28.276Z,21.54
2019-05-23T10:13:38.721Z,21.61
2019-05-23T10:14:28.379Z,21.64
2019-05-23T10:15:28.424Z,21.71
2019-05-23T10:16:28.465Z,21.68
2019-05-23T10:17:28.514Z,21.67
2019-05-23T10:18:28.557Z,21.65
2019-05-23T10:19:28.610Z,21.74
2019-05-23T10:20:28.649Z,21.74
2019-05-23T10:21:28.705Z,21.65
2019-05-23T10:22:28.746Z,21.59
2019-05-23T10:23:28.801Z,21.64
2019-05-23T10:24:28.841Z,21.62
2019-05-23T10:25:28.886Z,21.62
2019-05-23T10:26:28.937Z,21.65
2019-05-23T10:27:29.014Z,21.67
2019-05-23T10:28:29.027Z,21.67
2019-05-23T10:29:29.085Z,21.65
2019-05-23T10:30:29.122Z,21.53
2019-05-23T10:31:29.172Z,21.54
2019-05-23T10:32:29.216Z,21.56
2019-05-23T10:33:29.260Z,21.58
2019-05-23T10:34:29.308Z,21.64
2019-05-23T10:35:29.361Z,21.64
2019-05-23T10:36:29.416Z,21.46
2019-05-23T10:37:29.460Z,21.38
2019-05-23T10:38:29.729Z,21.34
2019-05-23T10:39:29.547Z,21.35
2019-05-23T10:40:29.594Z,21.27
2019-05-23T10:41:29.636Z,21.37
2019-05-23T10:42:29.688Z,21.37
2019-05-23T10:43:29.737Z,21.40
2019-05-23T10:44:29.787Z,21.52
2019-05-23T10:45:29.824Z,21.42
2019-05-23T10:46:29.874Z,21.50
2019-05-23T10:47:29.918Z,21.40
2019-05-23T10:48:29.967Z,21.47
2019-05-23T10:49:30.012Z,21.56
2019-05-23T10:50:43.556Z,21.62
2019-05-23T10:51:30.107Z,21.56
2019-05-23T10:52:30.159Z,21.56
2019-05-23T10:53:30.201Z,21.58
2019-05-23T10:54:30.248Z,21.54
2019-05-23T10:55:30.295Z,21.52
2019-05-23T10:56:30.337Z,21.54
2019-05-23T10:57:30.401Z,21.54
2019-05-23T10:58:30.442Z,21.56
2019-05-23T10:59:30.483Z,21.61
2019-05-23T11:00:30.537Z,21.62
2019-05-23T11:01:30.575Z,21.71
2019-05-23T11:02:30.621Z,21.74
2019-05-23T11:03:30.672Z,21.91
2019-05-23T11:04:30.728Z,21.90
2019-05-23T11:05:30.763Z,22.12
2019-05-23T11:06:30.849Z,22.03
2019-05-23T11:07:30.855Z,22.03
2019-05-23T11:08:30.906Z,22.14
2019-05-23T11:09:37.969Z,22.21
2019-05-23T11:10:31.100Z,22.15
2019-05-23T11:11:31.058Z,22.21
2019-05-23T11:12:31.116Z,22.09
2019-05-23T11:13:31.144Z,22.06
2019-05-23T11:14:31.189Z,22.09
2019-05-23T11:15:31.248Z,22.14
2019-05-23T11:16:31.285Z,22.25
2019-05-23T11:17:31.328Z,22.27
2019-05-23T11:18:31.377Z,22.12
2019-05-23T11:19:31.427Z,22.09
2019-05-23T11:20:31.476Z,22.15
2019-05-23T11:21:31.519Z,22.02
2019-05-23T11:22:31.566Z,22.14
2019-05-23T11:23:31.643Z,22.31
2019-05-23T11:24:31.680Z,22.40
2019-05-23T11:25:31.807Z,22.52
2019-05-23T11:26:31.753Z,22.73
2019-05-23T11:27:31.810Z,22.70
2019-05-23T11:28:31.850Z,22.73
2019-05-23T11:29:31.895Z,22.76
2019-05-23T11:30:31.947Z,22.82
2019-05-23T11:31:31.991Z,22.88
2019-05-23T11:32:32.098Z,22.90
2019-05-23T11:33:32.094Z,22.92
2019-05-23T11:34:32.135Z,23.04
2019-05-23T11:35:32.182Z,23.28
2019-05-23T11:36:35.994Z,23.36
2019-05-23T11:37:32.279Z,23.35
2019-05-23T11:38:32.330Z,23.32
2019-05-23T11:39:32.372Z,23.38
2019-05-23T11:40:33.774Z,23.36
2019-05-23T11:41:32.477Z,23.39
2019-05-23T11:42:32.516Z,23.16
2019-05-23T11:43:32.570Z,23.09
2019-05-23T11:44:32.614Z,23.13
2019-05-23T11:45:32.657Z,23.17
2019-05-23T11:46:32.707Z,23.20
2019-05-23T11:47:32.767Z,23.25
2019-05-23T11:48:32.799Z,23.22
2019-05-23T11:49:32.851Z,23.23
2019-05-23T11:50:32.955Z,23.32
2019-05-23T11:51:32.944Z,23.25
2019-05-23T11:52:32.996Z,23.27
2019-05-23T11:53:33.040Z,23.23
2019-05-23T11:54:33.090Z,23.04
2019-05-23T11:55:33.158Z,22.90
2019-05-23T11:56:33.194Z,22.83
2019-05-23T11:57:37.271Z,22.86
2019-05-23T11:58:33.309Z,22.97
2019-05-23T11:59:33.357Z,23.15
2019-05-23T12:00:33.390Z,23.15
2019-05-23T12:01:33.422Z,23.27
2019-05-23T12:02:33.482Z,23.39
2019-05-23T12:03:33.525Z,23.43
2019-05-23T12:04:33.572Z,23.47
2019-05-23T12:05:33.640Z,23.53
2019-05-23T12:06:33.678Z,23.72
2019-05-23T12:07:33.711Z,23.80
2019-05-23T12:08:33.759Z,23.85
2019-05-23T12:09:33.816Z,23.85
2019-05-23T12:10:33.862Z,23.88
2019-05-23T12:11:38.226Z,23.91
2019-05-23T12:12:33.962Z,23.87
2019-05-23T12:13:33.999Z,24.00
2019-05-23T12:14:34.045Z,24.02
2019-05-23T12:15:34.113Z,23.88
2019-05-23T12:16:34.139Z,23.85
2019-05-23T12:17:34.190Z,23.76
2019-05-23T12:18:34.238Z,23.69
2019-05-23T12:19:34.291Z,23.65
2019-05-23T12:20:34.419Z,23.68
2019-05-23T12:21:34.392Z,23.63
2019-05-23T12:22:34.588Z,23.80
2019-05-23T12:23:34.495Z,23.97
2019-05-23T12:24:35.814Z,23.97
2019-05-23T12:25:34.579Z,24.02
2019-05-23T12:26:34.622Z,24.08
2019-05-23T12:27:34.821Z,24.12
2019-05-23T12:28:34.719Z,24.10
2019-05-23T12:29:34.767Z,24.16
2019-05-23T12:30:34.814Z,24.16
2019-05-23T12:31:34.864Z,24.10
2019-05-23T12:32:34.918Z,24.10
2019-05-23T12:33:34.961Z,23.91
2019-05-23T12:34:35.009Z,23.97
2019-05-23T12:35:35.060Z,23.98
2019-05-23T12:36:35.108Z,23.93
2019-05-23T12:37:35.155Z,24.05
2019-05-23T12:38:35.201Z,24.05
2019-05-23T12:39:35.250Z,23.83
2019-05-23T12:40:35.359Z,23.60
2019-05-23T12:41:35.350Z,23.46
2019-05-23T12:42:35.404Z,23.23
2019-05-23T12:43:35.465Z,23.23
2019-05-23T12:44:35.494Z,23.12
2019-05-23T12:45:35.541Z,22.97
2019-05-23T12:46:35.594Z,22.95
2019-05-23T12:47:35.645Z,22.91
2019-05-23T12:48:35.695Z,22.91
2019-05-23T12:49:35.736Z,22.98
2019-05-23T12:50:35.800Z,22.94
2019-05-23T12:51:35.852Z,23.01
2019-05-23T12:52:35.879Z,22.91
2019-05-23T12:53:35.925Z,22.97
2019-05-23T12:54:35.974Z,23.05
2019-05-23T12:55:36.020Z,22.95
2019-05-23T12:56:36.081Z,23.05
2019-05-23T12:57:36.122Z,22.94
2019-05-23T12:58:36.164Z,23.02
2019-05-23T12:59:36.230Z,23.17
2019-05-23T13:00:36.679Z,23.13
2019-05-23T13:01:36.306Z,23.19
2019-05-23T13:02:36.354Z,23.25